createdAt,value
2023-12-27T00:01:20.132Z,64.19
2023-12-27T00:03:51.280Z,63.91
2023-12-27T00:06:22.362Z,63.90
2023-12-27T00:08:54.034Z,64.07
2023-12-27T00:11:25.053Z,64.38
2023-12-27T00:13:56.013Z,64.41
2023-12-27T00:16:26.945Z,64.50
2023-12-27T00:18:58.311Z,64.32
2023-12-27T00:21:29.480Z,64.59
2023-12-27T00:24:00.523Z,64.52
2023-12-27T00:26:31.508Z,64.64
2023-12-27T00:29:02.380Z,64.55
2023-12-27T00:31:33.311Z,64.82
2023-12-27T00:34:04.421Z,64.91
2023-12-27T00:36:35.738Z,64.80
2023-12-27T00:39:09.425Z,64.59
2023-12-27T00:41:40.387Z,64.39
2023-12-27T00:44:11.283Z,64.25
2023-12-27T00:46:43.451Z,64.09
2023-12-27T00:49:14.580Z,64.03
2023-12-27T00:51:46.507Z,63.89
2023-12-27T00:54:17.450Z,63.47
2023-12-27T00:56:48.415Z,63.73
2023-12-27T00:59:19.297Z,63.47
2023-12-27T01:01:50.213Z,63.59
2023-12-27T01:04:21.355Z,63.55
2023-12-27T01:06:52.307Z,63.19
2023-12-27T01:09:23.239Z,63.13
2023-12-27T01:11:54.208Z,63.25
2023-12-27T01:14:25.313Z,63.63
2023-12-27T01:16:56.241Z,63.65
2023-12-27T01:19:27.220Z,63.43
2023-12-27T01:21:58.200Z,63.55
2023-12-27T01:24:29.165Z,63.39
2023-12-27T01:27:00.073Z,63.79
2023-12-27T01:29:31.164Z,63.98
2023-12-27T01:32:02.124Z,64.30
2023-12-27T01:34:35.026Z,64.38
2023-12-27T01:37:07.266Z,64.44
2023-12-27T01:39:38.476Z,64.36
2023-12-27T01:42:09.674Z,64.42
2023-12-27T01:44:40.577Z,64.86
2023-12-27T01:47:12.577Z,65.07
2023-12-27T01:49:43.771Z,65.14
2023-12-27T01:52:15.465Z,65.11
2023-12-27T01:54:46.881Z,65.11
2023-12-27T01:57:17.851Z,65.41
2023-12-27T01:59:48.830Z,65.36
2023-12-27T02:02:19.796Z,65.26
2023-12-27T02:04:50.713Z,65.26
2023-12-27T02:07:28.566Z,65.27
2023-12-27T02:10:02.705Z,65.19
2023-12-27T02:12:34.113Z,65.47
2023-12-27T02:15:05.380Z,65.65
2023-12-27T02:17:36.642Z,65.86
2023-12-27T02:20:10.105Z,65.83
2023-12-27T02:22:44.075Z,65.99
2023-12-27T02:25:15.406Z,66.15
2023-12-27T02:27:47.466Z,66.29
2023-12-27T02:30:23.130Z,66.58
2023-12-27T02:32:54.783Z,66.87
2023-12-27T02:35:26.035Z,66.96
2023-12-27T02:37:57.311Z,66.83
2023-12-27T02:40:28.643Z,66.91
2023-12-27T02:42:59.646Z,66.97
2023-12-27T02:45:30.564Z,66.99
2023-12-27T02:48:01.935Z,66.76
2023-12-27T02:50:33.185Z,66.70
2023-12-27T02:53:04.243Z,66.49
2023-12-27T02:55:35.148Z,66.28
2023-12-27T02:58:06.380Z,66.13
2023-12-27T03:00:39.304Z,66.04
2023-12-27T03:03:10.480Z,65.99
2023-12-27T03:05:41.447Z,66.13
2023-12-27T03:08:12.373Z,66.02
2023-12-27T03:10:43.368Z,66.07
2023-12-27T03:13:14.394Z,66.02
2023-12-27T03:15:45.314Z,66.15
2023-12-27T03:18:16.527Z,66.30
2023-12-27T03:20:47.658Z,66.48
2023-12-27T03:23:18.614Z,66.58
2023-12-27T03:25:49.486Z,66.75
2023-12-27T03:28:20.665Z,66.69
2023-12-27T03:30:51.696Z,66.63
2023-12-27T03:33:22.838Z,66.61
2023-12-27T03:35:53.906Z,66.76
2023-12-27T03:38:25.209Z,66.75
2023-12-27T03:40:57.312Z,66.36
2023-12-27T03:43:28.231Z,66.56
2023-12-27T03:46:00.600Z,66.49
2023-12-27T03:48:31.709Z,66.60
2023-12-27T03:51:02.799Z,66.85
2023-12-27T03:53:33.689Z,67.07
2023-12-27T03:56:04.696Z,67.27
2023-12-27T03:58:35.639Z,67.22
2023-12-27T04:01:06.826Z,67.39
2023-12-27T04:03:37.931Z,67.54
2023-12-27T04:06:09.252Z,67.65
2023-12-27T04:08:40.217Z,67.91
2023-12-27T04:11:11.143Z,68.08
2023-12-27T04:13:42.293Z,68.05
2023-12-27T04:16:13.205Z,68.46
2023-12-27T04:18:44.354Z,68.69
2023-12-27T04:21:15.467Z,68.49
2023-12-27T04:23:46.421Z,68.50
2023-12-27T04:26:17.353Z,68.33
2023-12-27T04:28:48.244Z,68.39
2023-12-27T04:31:19.223Z,68.55
2023-12-27T04:33:50.316Z,68.60
2023-12-27T04:36:21.395Z,68.92
2023-12-27T04:38:52.328Z,68.93
2023-12-27T04:41:23.256Z,68.95
2023-12-27T04:43:54.187Z,68.93
2023-12-27T04:46:25.081Z,69.08
2023-12-27T04:48:56.262Z,69.28
2023-12-27T04:51:29.623Z,69.30
2023-12-27T04:54:00.980Z,69.53
2023-12-27T04:56:32.175Z,69.53
2023-12-27T04:59:03.121Z,69.39
2023-12-27T05:01:34.088Z,69.31
2023-12-27T05:04:05.253Z,69.40
2023-12-27T05:06:36.367Z,69.43
2023-12-27T05:09:07.381Z,69.24
2023-12-27T05:11:38.321Z,68.94
2023-12-27T05:14:09.264Z,68.73
2023-12-27T05:16:40.222Z,68.65
2023-12-27T05:19:11.251Z,68.67
2023-12-27T05:21:42.357Z,68.85
2023-12-27T05:24:13.304Z,68.81
2023-12-27T05:26:44.650Z,68.80
2023-12-27T05:29:15.587Z,68.82
2023-12-27T05:31:46.508Z,68.73
2023-12-27T05:34:17.580Z,68.74
2023-12-27T05:36:48.747Z,68.88
2023-12-27T05:39:19.704Z,68.90
2023-12-27T05:41:50.617Z,69.11
2023-12-27T05:44:21.574Z,69.24
2023-12-27T05:46:52.494Z,69.25
2023-12-27T05:49:23.538Z,69.32
2023-12-27T05:51:54.873Z,69.20
2023-12-27T05:54:27.596Z,69.44
2023-12-27T05:56:58.661Z,69.21
2023-12-27T05:59:29.632Z,69.10
2023-12-27T06:02:00.643Z,69.30
2023-12-27T06:04:31.697Z,69.30
2023-12-27T06:07:02.586Z,69.26
2023-12-27T06:09:33.531Z,69.26
2023-12-27T06:12:04.662Z,69.38
2023-12-27T06:14:35.864Z,69.20
2023-12-27T06:17:07.054Z,69.32
2023-12-27T06:19:39.579Z,69.37
2023-12-27T06:22:10.586Z,69.35
2023-12-27T06:24:41.620Z,69.35
2023-12-27T06:27:13.572Z,69.51
2023-12-27T06:29:44.751Z,69.46
2023-12-27T06:32:15.883Z,69.46
2023-12-27T06:34:46.826Z,69.43
2023-12-27T06:37:18.136Z,69.34
2023-12-27T06:39:49.189Z,69.40
2023-12-27T06:42:20.512Z,69.37
2023-12-27T06:44:51.882Z,69.48
2023-12-27T06:47:22.864Z,69.77
2023-12-27T06:49:53.873Z,69.84
2023-12-27T06:52:24.885Z,71.99
2023-12-27T06:54:55.839Z,71.87
2023-12-27T06:57:26.804Z,70.80
2023-12-27T06:59:57.817Z,70.45
2023-12-27T07:02:28.795Z,70.19
2023-12-27T07:04:59.866Z,70.29
2023-12-27T07:07:30.850Z,70.33
2023-12-27T07:10:02.140Z,70.22
2023-12-27T07:12:33.155Z,70.02
2023-12-27T07:15:04.207Z,70.00
2023-12-27T07:17:35.716Z,69.81
2023-12-27T07:20:07.533Z,69.37
2023-12-27T07:22:38.672Z,69.44
2023-12-27T07:25:10.814Z,69.36
2023-12-27T07:27:41.890Z,69.11
2023-12-27T07:30:14.653Z,69.15
2023-12-27T07:32:45.638Z,69.10
2023-12-27T07:35:16.866Z,69.15
2023-12-27T07:37:47.867Z,68.98
2023-12-27T07:40:19.874Z,68.94
2023-12-27T07:42:52.451Z,69.22
2023-12-27T07:45:24.104Z,69.14
2023-12-27T07:47:55.285Z,69.08
2023-12-27T07:50:26.449Z,68.61
2023-12-27T07:52:57.375Z,67.76
2023-12-27T07:55:29.793Z,67.48
2023-12-27T07:58:00.781Z,67.05
2023-12-27T08:00:31.730Z,66.86
2023-12-27T08:03:05.652Z,66.98
2023-12-27T08:05:37.482Z,67.03
2023-12-27T08:08:09.278Z,67.05
2023-12-27T08:10:40.173Z,66.84
2023-12-27T08:13:11.176Z,66.95
2023-12-27T08:15:42.469Z,67.11
2023-12-27T08:18:13.624Z,67.03
2023-12-27T08:20:44.934Z,66.96
2023-12-27T08:23:17.933Z,66.84
2023-12-27T08:25:49.990Z,72.58
2023-12-27T08:28:20.918Z,69.65
2023-12-27T08:30:52.059Z,68.07
2023-12-27T08:33:23.132Z,67.15
2023-12-27T08:35:54.188Z,66.91
2023-12-27T08:38:26.169Z,66.72
2023-12-27T08:40:57.286Z,66.86
2023-12-27T08:43:31.036Z,66.67
2023-12-27T08:46:01.995Z,66.34
2023-12-27T08:48:33.147Z,66.18
2023-12-27T08:51:04.374Z,66.06
2023-12-27T08:53:35.354Z,65.87
2023-12-27T08:56:06.950Z,65.85
2023-12-27T08:58:37.892Z,65.56
2023-12-27T09:01:09.576Z,65.27
2023-12-27T09:03:41.573Z,64.54
2023-12-27T09:06:14.195Z,64.15
2023-12-27T09:08:45.390Z,63.84
2023-12-27T09:11:18.780Z,63.05
2023-12-27T09:14:09.647Z,62.32
2023-12-27T09:16:40.649Z,61.81
2023-12-27T09:19:11.610Z,61.49
2023-12-27T09:21:47.877Z,61.27
2023-12-27T09:24:19.989Z,61.04
2023-12-27T09:26:52.672Z,60.82
2023-12-27T09:29:23.570Z,60.75
2023-12-27T09:31:54.793Z,60.86
2023-12-27T09:34:25.956Z,61.06
2023-12-27T09:36:56.989Z,61.55
2023-12-27T09:39:27.960Z,61.86
2023-12-27T09:41:59.500Z,61.91
2023-12-27T09:44:31.124Z,61.85
2023-12-27T09:47:04.360Z,62.06
2023-12-27T09:49:38.065Z,62.66
2023-12-27T09:52:10.416Z,63.10
2023-12-27T09:54:41.481Z,63.44
2023-12-27T09:57:13.173Z,63.63
2023-12-27T09:59:48.639Z,62.07
2023-12-27T10:02:23.772Z,61.72
2023-12-27T10:05:07.964Z,61.47
2023-12-27T10:07:42.861Z,61.16
2023-12-27T10:10:21.454Z,60.38
2023-12-27T10:13:04.693Z,59.83
2023-12-27T10:15:35.620Z,59.53
2023-12-27T10:18:07.786Z,59.36
2023-12-27T10:20:39.575Z,58.92
2023-12-27T10:23:10.868Z,59.18
2023-12-27T10:25:43.492Z,59.36
2023-12-27T10:28:14.680Z,58.99
2023-12-27T10:30:46.430Z,58.76
2023-12-27T10:33:24.253Z,58.49
2023-12-27T10:35:59.996Z,58.52
2023-12-27T10:38:31.158Z,58.61
2023-12-27T10:41:04.724Z,59.20
2023-12-27T10:43:36.825Z,65.51
2023-12-27T10:46:12.789Z,64.48
2023-12-27T10:48:44.828Z,64.11
2023-12-27T10:51:17.757Z,60.01
2023-12-27T10:53:52.282Z,58.94
2023-12-27T10:56:24.378Z,58.50
2023-12-27T10:58:56.726Z,58.25
2023-12-27T11:01:28.633Z,58.00
2023-12-27T11:04:00.294Z,58.12
2023-12-27T11:06:33.941Z,58.33
2023-12-27T11:09:08.586Z,58.18
2023-12-27T11:11:41.546Z,58.21
2023-12-27T11:14:13.430Z,58.42
2023-12-27T11:16:45.449Z,58.76
2023-12-27T11:19:17.275Z,58.94
2023-12-27T11:21:48.817Z,58.90
2023-12-27T11:24:21.174Z,59.31
2023-12-27T11:27:02.638Z,59.47
2023-12-27T11:29:34.091Z,59.86
2023-12-27T11:32:05.888Z,59.79
2023-12-27T11:34:37.103Z,59.85
2023-12-27T11:37:09.276Z,60.19
2023-12-27T11:39:43.039Z,60.40
2023-12-27T11:42:16.920Z,60.46
2023-12-27T11:44:54.755Z,60.55
2023-12-27T11:47:26.166Z,60.50
2023-12-27T11:50:23.370Z,60.72
2023-12-27T11:52:59.855Z,60.53
2023-12-27T11:55:38.358Z,60.56
2023-12-27T11:58:09.725Z,60.51
2023-12-27T12:00:40.951Z,60.36
2023-12-27T12:03:21.382Z,60.43
2023-12-27T12:06:09.449Z,60.30
2023-12-27T12:08:46.157Z,60.17
2023-12-27T12:11:19.008Z,60.08
2023-12-27T12:13:50.143Z,60.43
2023-12-27T12:16:21.371Z,60.47
2023-12-27T12:18:53.788Z,60.48
2023-12-27T12:21:26.084Z,60.46
2023-12-27T12:23:57.009Z,60.63
2023-12-27T12:26:30.211Z,60.85
2023-12-27T12:29:03.268Z,60.95
2023-12-27T12:31:35.577Z,60.90
2023-12-27T12:34:06.632Z,60.91
2023-12-27T12:36:37.965Z,60.90
2023-12-27T12:39:09.039Z,61.02
2023-12-27T12:41:40.620Z,61.00
2023-12-27T12:44:13.684Z,61.04
2023-12-27T12:46:45.385Z,61.20
2023-12-27T12:49:16.863Z,60.93
2023-12-27T12:51:50.906Z,60.91
2023-12-27T12:54:22.584Z,61.23
2023-12-27T12:56:53.581Z,61.20
2023-12-27T12:59:25.228Z,61.40
2023-12-27T13:01:57.750Z,61.50
2023-12-27T13:04:28.892Z,61.55
2023-12-27T13:07:09.668Z,61.38
2023-12-27T13:10:01.454Z,61.10
2023-12-27T13:12:32.798Z,61.08
2023-12-27T13:15:04.467Z,61.12
2023-12-27T13:17:35.544Z,60.85
2023-12-27T13:20:08.501Z,60.78
2023-12-27T13:22:39.708Z,60.81
2023-12-27T13:25:12.892Z,60.64
2023-12-27T13:27:43.826Z,60.50
2023-12-27T13:30:16.456Z,60.48
2023-12-27T13:32:47.583Z,60.30
2023-12-27T13:35:18.964Z,60.48
2023-12-27T13:37:49.988Z,60.54
2023-12-27T13:40:20.926Z,60.73
2023-12-27T13:42:54.823Z,60.64
2023-12-27T13:45:28.189Z,60.71
2023-12-27T13:47:59.557Z,60.90
2023-12-27T13:50:30.797Z,61.01
2023-12-27T13:53:02.537Z,61.25
2023-12-27T13:55:34.131Z,61.56
2023-12-27T13:58:05.504Z,61.60
2023-12-27T14:00:36.578Z,61.61
2023-12-27T14:03:11.023Z,61.67
2023-12-27T14:05:44.151Z,61.94
2023-12-27T14:08:15.265Z,62.11
2023-12-27T14:10:47.212Z,62.08
2023-12-27T14:13:19.549Z,62.48
2023-12-27T14:15:50.696Z,62.42
2023-12-27T14:18:21.845Z,62.63
2023-12-27T14:20:52.882Z,63.18
2023-12-27T14:23:23.831Z,63.27
2023-12-27T14:25:54.738Z,63.03
2023-12-27T14:28:25.675Z,63.10
2023-12-27T14:30:56.698Z,63.36
2023-12-27T14:33:27.899Z,63.31
2023-12-27T14:35:58.912Z,63.26
2023-12-27T14:38:31.820Z,63.54
2023-12-27T14:41:04.083Z,63.47
2023-12-27T14:43:35.102Z,63.63
2023-12-27T14:46:08.874Z,63.73
2023-12-27T14:48:40.374Z,63.60
2023-12-27T14:51:14.936Z,63.71
2023-12-27T14:53:47.453Z,63.86
2023-12-27T14:56:18.432Z,63.73
2023-12-27T14:58:49.296Z,63.68
2023-12-27T15:01:20.342Z,63.70
2023-12-27T15:03:52.380Z,63.72
2023-12-27T15:06:23.470Z,63.71
2023-12-27T15:08:54.483Z,63.80
2023-12-27T15:11:25.792Z,63.72
2023-12-27T15:13:56.723Z,63.87
2023-12-27T15:16:27.641Z,63.91
2023-12-27T15:18:58.597Z,64.09
2023-12-27T15:21:30.258Z,63.80
2023-12-27T15:24:01.829Z,64.22
2023-12-27T15:26:32.767Z,64.26
2023-12-27T15:29:03.713Z,64.48
2023-12-27T15:31:35.251Z,64.28
2023-12-27T15:34:06.406Z,64.52
2023-12-27T15:36:40.652Z,64.62
2023-12-27T15:39:11.786Z,64.57
2023-12-27T15:41:42.797Z,64.53
2023-12-27T15:44:13.692Z,64.86
2023-12-27T15:46:46.056Z,64.73
2023-12-27T15:49:17.109Z,64.68
2023-12-27T15:51:48.276Z,64.59
2023-12-27T15:54:19.387Z,64.87
2023-12-27T15:56:52.707Z,64.71
2023-12-27T15:59:24.114Z,64.54
2023-12-27T16:01:56.984Z,64.92
2023-12-27T16:04:28.022Z,64.94
2023-12-27T16:06:59.134Z,65.23
2023-12-27T16:09:30.032Z,65.13
2023-12-27T16:12:01.034Z,65.42
2023-12-27T16:14:33.564Z,65.50
2023-12-27T16:17:05.686Z,66.03
2023-12-27T16:19:38.462Z,65.97
2023-12-27T16:22:10.189Z,66.13
2023-12-27T16:24:41.306Z,66.39
2023-12-27T16:27:12.300Z,66.52
2023-12-27T16:29:44.442Z,66.65
2023-12-27T16:32:16.914Z,66.74
2023-12-27T16:34:47.882Z,66.95
2023-12-27T16:37:18.885Z,67.15
2023-12-27T16:39:49.800Z,67.13
2023-12-27T16:42:20.800Z,67.11
2023-12-27T16:44:51.731Z,67.07
2023-12-27T16:47:22.749Z,67.01
2023-12-27T16:49:53.758Z,67.01
2023-12-27T16:52:24.694Z,67.11
2023-12-27T16:54:55.645Z,67.25
2023-12-27T16:57:26.673Z,67.37
2023-12-27T16:59:57.574Z,67.48
2023-12-27T17:02:28.494Z,67.69
2023-12-27T17:04:59.449Z,67.94
2023-12-27T17:07:30.369Z,68.67
2023-12-27T17:10:01.309Z,68.59
2023-12-27T17:12:32.342Z,68.27
2023-12-27T17:15:03.295Z,68.20
2023-12-27T17:17:34.336Z,68.25
2023-12-27T17:20:07.797Z,68.37
2023-12-27T17:22:39.419Z,68.45
2023-12-27T17:25:11.890Z,68.53
2023-12-27T17:27:44.233Z,68.60
2023-12-27T17:30:16.676Z,68.87
2023-12-27T17:32:49.213Z,68.99
2023-12-27T17:35:22.653Z,69.00
2023-12-27T17:37:55.652Z,68.96
2023-12-27T17:40:27.706Z,69.14
2023-12-27T17:42:59.136Z,69.29
2023-12-27T17:45:30.220Z,69.46
2023-12-27T17:48:01.222Z,69.45
2023-12-27T17:50:32.235Z,74.48
2023-12-27T17:53:03.610Z,83.75
2023-12-27T17:55:35.550Z,74.23
2023-12-27T17:58:07.586Z,71.34
2023-12-27T18:00:38.599Z,70.05
2023-12-27T18:03:10.270Z,69.41
2023-12-27T18:05:42.613Z,69.37
2023-12-27T18:08:14.023Z,69.08
2023-12-27T18:10:45.978Z,68.81
2023-12-27T18:13:16.924Z,68.81
2023-12-27T18:15:47.956Z,68.74
2023-12-27T18:18:19.231Z,68.89
2023-12-27T18:20:51.692Z,68.84
2023-12-27T18:23:22.609Z,69.06
2023-12-27T18:25:54.518Z,68.99
2023-12-27T18:28:27.175Z,69.26
2023-12-27T18:30:58.650Z,69.31
2023-12-27T18:33:30.193Z,69.34
2023-12-27T18:36:01.242Z,69.44
2023-12-27T18:38:32.566Z,69.37
2023-12-27T18:41:04.728Z,69.42
2023-12-27T18:43:36.162Z,69.56
2023-12-27T18:46:07.589Z,69.41
2023-12-27T18:48:38.603Z,69.32
2023-12-27T18:51:10.264Z,69.53
2023-12-27T18:53:41.207Z,69.60
2023-12-27T18:56:12.726Z,69.81
2023-12-27T18:58:43.643Z,69.94
2023-12-27T19:01:16.034Z,70.02
2023-12-27T19:03:48.988Z,70.12
2023-12-27T19:06:22.828Z,69.90
2023-12-27T19:08:57.601Z,69.70
2023-12-27T19:11:29.735Z,69.63
2023-12-27T19:14:04.189Z,69.62
2023-12-27T19:16:35.233Z,70.00
2023-12-27T19:19:06.736Z,70.02
2023-12-27T19:21:41.084Z,70.01
2023-12-27T19:24:12.250Z,69.99
2023-12-27T19:26:43.205Z,69.78
2023-12-27T19:29:14.177Z,69.59
2023-12-27T19:31:45.603Z,69.63
2023-12-27T19:34:16.720Z,69.56
2023-12-27T19:36:47.896Z,69.90
2023-12-27T19:39:20.143Z,73.14
2023-12-27T19:41:53.143Z,74.38
2023-12-27T19:44:24.864Z,71.96
2023-12-27T19:46:55.861Z,71.16
2023-12-27T19:49:26.851Z,71.22
2023-12-27T19:51:57.815Z,70.83
2023-12-27T19:54:28.925Z,70.57
2023-12-27T19:57:00.078Z,70.57
2023-12-27T19:59:31.026Z,70.56
2023-12-27T20:02:01.944Z,70.60
2023-12-27T20:04:33.084Z,70.76
2023-12-27T20:07:04.027Z,71.02
2023-12-27T20:09:35.048Z,71.03
2023-12-27T20:12:06.510Z,71.32
2023-12-27T20:14:37.800Z,71.41
2023-12-27T20:17:09.054Z,71.40
2023-12-27T20:19:40.421Z,71.15
2023-12-27T20:22:11.428Z,71.00
2023-12-27T20:24:42.970Z,70.74
2023-12-27T20:27:14.081Z,70.42
2023-12-27T20:29:46.204Z,70.41
2023-12-27T20:32:19.188Z,70.83
2023-12-27T20:34:50.507Z,71.31
2023-12-27T20:37:21.466Z,71.27
2023-12-27T20:39:52.700Z,70.66
2023-12-27T20:42:23.700Z,70.54
2023-12-27T20:44:54.906Z,70.68
2023-12-27T20:47:26.001Z,71.33
2023-12-27T20:49:57.166Z,71.90
2023-12-27T20:52:28.324Z,72.40
2023-12-27T20:55:00.298Z,72.92
2023-12-27T20:57:33.876Z,72.94
2023-12-27T21:00:06.462Z,72.84
2023-12-27T21:02:37.597Z,73.16
2023-12-27T21:05:09.903Z,73.17
2023-12-27T21:07:40.936Z,72.94
2023-12-27T21:10:12.477Z,72.90
2023-12-27T21:12:43.499Z,72.49
2023-12-27T21:15:14.761Z,72.39
2023-12-27T21:17:46.978Z,72.48
2023-12-27T21:20:18.240Z,72.49
2023-12-27T21:22:49.189Z,72.72
2023-12-27T21:25:20.272Z,73.00
2023-12-27T21:27:51.271Z,72.65
2023-12-27T21:30:22.508Z,72.49
2023-12-27T21:32:54.200Z,72.20
2023-12-27T21:35:25.233Z,72.19
2023-12-27T21:37:58.071Z,71.84
2023-12-27T21:40:29.202Z,72.13
2023-12-27T21:43:00.114Z,72.10
2023-12-27T21:45:32.756Z,72.63
2023-12-27T21:48:04.303Z,73.33
2023-12-27T21:50:37.988Z,73.79
2023-12-27T21:53:09.034Z,73.91
2023-12-27T21:55:40.444Z,73.92
2023-12-27T21:58:15.335Z,73.88
2023-12-27T22:00:46.335Z,73.91
2023-12-27T22:03:17.548Z,73.75
2023-12-27T22:05:48.587Z,73.54
2023-12-27T22:08:19.992Z,73.63
2023-12-27T22:10:50.866Z,73.29
2023-12-27T22:13:21.876Z,73.15
2023-12-27T22:16:00.950Z,73.31
2023-12-27T22:18:32.869Z,73.42
2023-12-27T22:21:05.503Z,73.41
2023-12-27T22:23:36.494Z,73.37
2023-12-27T22:26:07.691Z,73.54
2023-12-27T22:28:39.613Z,73.50
2023-12-27T22:31:11.387Z,73.56
2023-12-27T22:33:42.771Z,73.70
2023-12-27T22:36:15.505Z,78.98
2023-12-27T22:38:46.962Z,75.21
2023-12-27T22:41:17.931Z,74.19
2023-12-27T22:43:48.907Z,73.62
2023-12-27T22:46:19.856Z,73.19
2023-12-27T22:48:50.832Z,73.02
2023-12-27T22:51:22.873Z,73.28
2023-12-27T22:53:54.014Z,73.40
2023-12-27T22:56:24.886Z,73.36
2023-12-27T22:58:56.477Z,73.26
2023-12-27T23:01:27.578Z,73.07
2023-12-27T23:03:58.751Z,73.13
2023-12-27T23:06:29.760Z,73.45
2023-12-27T23:09:00.912Z,73.97
2023-12-27T23:11:31.843Z,73.88
2023-12-27T23:14:02.727Z,73.97
2023-12-27T23:16:33.590Z,74.06
2023-12-27T23:19:04.640Z,74.04
2023-12-27T23:21:35.865Z,74.04
2023-12-27T23:24:07.428Z,73.65
2023-12-27T23:26:38.359Z,73.35
2023-12-27T23:29:09.321Z,73.28
2023-12-27T23:31:40.271Z,73.32
2023-12-27T23:34:11.540Z,73.49
2023-12-27T23:36:42.566Z,73.40
2023-12-27T23:39:13.620Z,73.51
2023-12-27T23:41:44.595Z,73.52
2023-12-27T23:44:15.845Z,73.19
2023-12-27T23:46:46.772Z,73.64
2023-12-27T23:49:17.957Z,73.55
2023-12-27T23:51:49.127Z,73.52
2023-12-27T23:54:20.333Z,73.64
2023-12-27T23:56:51.376Z,74.06
2023-12-27T23:59:22.373Z,74.15
